sensor_id;sensor_type;location;lat;lon;timestamp;temperature;humidity
18805;DHT22;9530;48.930;9.526;2022-09-09T00:00:18;16.00;99.90
18805;DHT22;9530;48.930;9.526;2022-09-09T00:02:53;16.00;99.90
18805;DHT22;9530;48.930;9.526;2022-09-09T00:05:29;15.90;99.90
18805;DHT22;9530;48.930;9.526;2022-09-09T00:07:59;16.00;99.90
18805;DHT22;9530;48.930;9.526;2022-09-09T00:10:32;15.90;99.90
18805;DHT22;9530;48.930;9.526;2022-09-09T00:13:04;15.90;99.90
18805;DHT22;9530;48.930;9.526;2022-09-09T00:15:36;15.80;99.90
18805;DHT22;9530;48.930;9.526;2022-09-09T00:18:11;15.70;99.90
18805;DHT22;9530;48.930;9.526;2022-09-09T00:20:44;15.60;99.90
18805;DHT22;9530;48.930;9.526;2022-09-09T00:23:20;15.50;99.90
18805;DHT22;9530;48.930;9.526;2022-09-09T00:25:54;15.50;99.90
18805;DHT22;9530;48.930;9.526;2022-09-09T00:28:26;15.40;99.90
18805;DHT22;9530;48.930;9.526;2022-09-09T00:30:59;15.30;99.90
18805;DHT22;9530;48.930;9.526;2022-09-09T00:33:30;15.30;99.90
18805;DHT22;9530;48.930;9.526;2022-09-09T00:35:58;15.20;99.90
18805;DHT22;9530;48.930;9.526;2022-09-09T00:38:32;15.20;99.90
18805;DHT22;9530;48.930;9.526;2022-09-09T00:41:05;15.20;99.90
18805;DHT22;9530;48.930;9.526;2022-09-09T00:43:37;15.10;99.90
18805;DHT22;9530;48.930;9.526;2022-09-09T00:46:21;15.10;99.90
18805;DHT22;9530;48.930;9.526;2022-09-09T00:48:57;15.10;99.90
18805;DHT22;9530;48.930;9.526;2022-09-09T00:51:30;15.00;99.90
18805;DHT22;9530;48.930;9.526;2022-09-09T00:54:15;15.00;99.90
18805;DHT22;9530;48.930;9.526;2022-09-09T00:56:49;15.00;99.90
18805;DHT22;9530;48.930;9.526;2022-09-09T00:59:26;15.00;99.90
18805;DHT22;9530;48.930;9.526;2022-09-09T01:01:54;14.90;99.90
18805;DHT22;9530;48.930;9.526;2022-09-09T01:04:29;15.00;99.90
18805;DHT22;9530;48.930;9.526;2022-09-09T01:07:06;15.00;99.90
18805;DHT22;9530;48.930;9.526;2022-09-09T01:09:41;15.10;99.90
18805;DHT22;9530;48.930;9.526;2022-09-09T01:12:11;15.10;99.90
18805;DHT22;9530;48.930;9.526;2022-09-09T01:14:43;15.10;99.90
18805;DHT22;9530;48.930;9.526;2022-09-09T01:17:15;15.20;99.90
18805;DHT22;9530;48.930;9.526;2022-09-09T01:19:55;15.30;99.90
18805;DHT22;9530;48.930;9.526;2022-09-09T01:22:32;15.30;99.90
18805;DHT22;9530;48.930;9.526;2022-09-09T01:25:20;15.20;99.90
18805;DHT22;9530;48.930;9.526;2022-09-09T01:27:51;15.30;99.90
18805;DHT22;9530;48.930;9.526;2022-09-09T01:30:19;15.30;99.90
18805;DHT22;9530;48.930;9.526;2022-09-09T01:32:49;15.40;99.90
18805;DHT22;9530;48.930;9.526;2022-09-09T01:35:28;15.50;99.90
18805;DHT22;9530;48.930;9.526;2022-09-09T01:37:56;15.40;99.90
18805;DHT22;9530;48.930;9.526;2022-09-09T01:40:23;15.50;99.90
18805;DHT22;9530;48.930;9.526;2022-09-09T01:42:52;15.50;99.90
18805;DHT22;9530;48.930;9.526;2022-09-09T01:45:19;15.50;99.90
18805;DHT22;9530;48.930;9.526;2022-09-09T01:47:46;15.50;99.90
18805;DHT22;9530;48.930;9.526;2022-09-09T01:50:16;15.50;99.90
18805;DHT22;9530;48.930;9.526;2022-09-09T01:52:44;15.50;99.90
18805;DHT22;9530;48.930;9.526;2022-09-09T01:55:11;15.50;99.90
18805;DHT22;9530;48.930;9.526;2022-09-09T01:57:42;15.60;99.90
18805;DHT22;9530;48.930;9.526;2022-09-09T02:00:13;15.70;99.90
18805;DHT22;9530;48.930;9.526;2022-09-09T02:02:48;15.80;99.90
18805;DHT22;9530;48.930;9.526;2022-09-09T02:05:30;15.80;99.90
18805;DHT22;9530;48.930;9.526;2022-09-09T02:08:06;15.80;99.90
18805;DHT22;9530;48.930;9.526;2022-09-09T02:10:39;15.80;99.90
18805;DHT22;9530;48.930;9.526;2022-09-09T02:13:10;15.90;99.90
18805;DHT22;9530;48.930;9.526;2022-09-09T02:15:43;15.90;99.90
18805;DHT22;9530;48.930;9.526;2022-09-09T02:18:15;15.90;99.90
18805;DHT22;9530;48.930;9.526;2022-09-09T02:20:45;15.80;99.90
18805;DHT22;9530;48.930;9.526;2022-09-09T02:23:12;15.80;99.90
18805;DHT22;9530;48.930;9.526;2022-09-09T02:25:41;15.80;99.90
18805;DHT22;9530;48.930;9.526;2022-09-09T02:28:09;15.80;99.90
18805;DHT22;9530;48.930;9.526;2022-09-09T02:30:41;15.70;99.90
18805;DHT22;9530;48.930;9.526;2022-09-09T02:33:11;15.60;99.90
18805;DHT22;9530;48.930;9.526;2022-09-09T02:35:40;15.50;99.90
18805;DHT22;9530;48.930;9.526;2022-09-09T02:38:13;15.40;99.90
18805;DHT22;9530;48.930;9.526;2022-09-09T02:40:40;15.20;99.90
18805;DHT22;9530;48.930;9.526;2022-09-09T02:43:06;15.10;99.90
18805;DHT22;9530;48.930;9.526;2022-09-09T02:45:39;15.00;99.90
18805;DHT22;9530;48.930;9.526;2022-09-09T02:48:14;14.80;99.90
18805;DHT22;9530;48.930;9.526;2022-09-09T02:50:52;14.70;99.90
18805;DHT22;9530;48.930;9.526;2022-09-09T02:53:24;14.60;99.90
18805;DHT22;9530;48.930;9.526;2022-09-09T02:55:56;14.60;99.90
18805;DHT22;9530;48.930;9.526;2022-09-09T02:58:25;14.50;99.90
18805;DHT22;9530;48.930;9.526;2022-09-09T03:00:52;14.40;99.90
18805;DHT22;9530;48.930;9.526;2022-09-09T03:03:20;14.30;99.90
18805;DHT22;9530;48.930;9.526;2022-09-09T03:05:47;14.20;99.90
18805;DHT22;9530;48.930;9.526;2022-09-09T03:08:15;14.10;99.90
18805;DHT22;9530;48.930;9.526;2022-09-09T03:13:09;13.80;99.90
18805;DHT22;9530;48.930;9.526;2022-09-09T03:15:37;13.80;99.90
18805;DHT22;9530;48.930;9.526;2022-09-09T03:18:04;13.80;99.90
18805;DHT22;9530;48.930;9.526;2022-09-09T03:20:32;13.70;99.90
18805;DHT22;9530;48.930;9.526;2022-09-09T03:23:00;13.70;99.90
18805;DHT22;9530;48.930;9.526;2022-09-09T03:25:27;13.70;99.90
18805;DHT22;9530;48.930;9.526;2022-09-09T03:27:55;13.60;99.90
18805;DHT22;9530;48.930;9.526;2022-09-09T03:30:22;13.50;99.90
18805;DHT22;9530;48.930;9.526;2022-09-09T03:32:49;13.40;99.90
18805;DHT22;9530;48.930;9.526;2022-09-09T03:35:17;13.40;99.90
18805;DHT22;9530;48.930;9.526;2022-09-09T03:37:45;13.40;99.90
18805;DHT22;9530;48.930;9.526;2022-09-09T03:40:12;13.30;99.90
18805;DHT22;9530;48.930;9.526;2022-09-09T03:42:39;13.30;99.90
18805;DHT22;9530;48.930;9.526;2022-09-09T03:45:08;13.20;99.90
18805;DHT22;9530;48.930;9.526;2022-09-09T03:47:36;13.30;99.90
18805;DHT22;9530;48.930;9.526;2022-09-09T03:50:04;13.30;99.90
18805;DHT22;9530;48.930;9.526;2022-09-09T03:52:34;13.30;99.90
18805;DHT22;9530;48.930;9.526;2022-09-09T03:55:03;13.40;99.90
18805;DHT22;9530;48.930;9.526;2022-09-09T03:57:31;13.50;99.90
18805;DHT22;9530;48.930;9.526;2022-09-09T04:00:00;13.50;99.90
18805;DHT22;9530;48.930;9.526;2022-09-09T04:02:27;13.60;99.90
18805;DHT22;9530;48.930;9.526;2022-09-09T04:04:54;13.70;99.90
18805;DHT22;9530;48.930;9.526;2022-09-09T04:07:21;13.70;99.90
18805;DHT22;9530;48.930;9.526;2022-09-09T04:09:48;13.70;99.90
18805;DHT22;9530;48.930;9.526;2022-09-09T04:12:16;13.70;99.90
18805;DHT22;9530;48.930;9.526;2022-09-09T04:14:43;13.80;99.90
18805;DHT22;9530;48.930;9.526;2022-09-09T04:17:10;13.90;99.90
18805;DHT22;9530;48.930;9.526;2022-09-09T04:19:36;14.00;99.90
18805;DHT22;9530;48.930;9.526;2022-09-09T04:22:03;14.00;99.90
18805;DHT22;9530;48.930;9.526;2022-09-09T04:24:30;14.00;99.90
18805;DHT22;9530;48.930;9.526;2022-09-09T04:26:57;14.00;99.90
18805;DHT22;9530;48.930;9.526;2022-09-09T04:29:25;14.00;99.90
18805;DHT22;9530;48.930;9.526;2022-09-09T04:31:51;13.90;99.90
18805;DHT22;9530;48.930;9.526;2022-09-09T04:34:18;13.90;99.90
18805;DHT22;9530;48.930;9.526;2022-09-09T04:36:45;14.00;99.90
18805;DHT22;9530;48.930;9.526;2022-09-09T04:39:11;14.00;99.90
18805;DHT22;9530;48.930;9.526;2022-09-09T04:41:38;14.10;99.90
18805;DHT22;9530;48.930;9.526;2022-09-09T04:44:05;14.10;99.90
18805;DHT22;9530;48.930;9.526;2022-09-09T04:46:33;14.20;99.90
18805;DHT22;9530;48.930;9.526;2022-09-09T04:49:00;14.20;99.90
18805;DHT22;9530;48.930;9.526;2022-09-09T04:51:26;14.20;99.90
18805;DHT22;9530;48.930;9.526;2022-09-09T04:53:53;14.30;99.90
18805;DHT22;9530;48.930;9.526;2022-09-09T04:56:20;14.50;99.90
18805;DHT22;9530;48.930;9.526;2022-09-09T04:58:47;14.60;99.90
18805;DHT22;9530;48.930;9.526;2022-09-09T05:01:15;14.70;99.90
18805;DHT22;9530;48.930;9.526;2022-09-09T05:03:44;14.80;99.90
18805;DHT22;9530;48.930;9.526;2022-09-09T05:06:13;14.90;99.90
18805;DHT22;9530;48.930;9.526;2022-09-09T05:08:41;14.90;99.90
18805;DHT22;9530;48.930;9.526;2022-09-09T05:11:16;15.00;99.90
18805;DHT22;9530;48.930;9.526;2022-09-09T05:13:43;15.00;99.90
18805;DHT22;9530;48.930;9.526;2022-09-09T05:16:10;15.00;99.90
18805;DHT22;9530;48.930;9.526;2022-09-09T05:18:37;15.10;99.90
18805;DHT22;9530;48.930;9.526;2022-09-09T05:21:05;15.20;99.90
18805;DHT22;9530;48.930;9.526;2022-09-09T05:23:32;15.30;99.90
18805;DHT22;9530;48.930;9.526;2022-09-09T05:26:00;15.30;99.90
18805;DHT22;9530;48.930;9.526;2022-09-09T05:28:27;15.30;99.90
18805;DHT22;9530;48.930;9.526;2022-09-09T05:30:58;15.30;99.90
18805;DHT22;9530;48.930;9.526;2022-09-09T05:33:25;15.30;99.90
18805;DHT22;9530;48.930;9.526;2022-09-09T05:35:59;15.30;99.90
18805;DHT22;9530;48.930;9.526;2022-09-09T05:38:28;15.40;99.90
18805;DHT22;9530;48.930;9.526;2022-09-09T05:40:56;15.50;99.90
18805;DHT22;9530;48.930;9.526;2022-09-09T05:43:23;15.50;99.90
18805;DHT22;9530;48.930;9.526;2022-09-09T05:45:59;15.60;99.90
18805;DHT22;9530;48.930;9.526;2022-09-09T05:48:28;15.60;99.90
18805;DHT22;9530;48.930;9.526;2022-09-09T05:50:56;15.60;99.90
18805;DHT22;9530;48.930;9.526;2022-09-09T05:53:23;15.70;99.90
18805;DHT22;9530;48.930;9.526;2022-09-09T05:55:57;15.80;99.90
18805;DHT22;9530;48.930;9.526;2022-09-09T05:58:24;15.90;99.90
18805;DHT22;9530;48.930;9.526;2022-09-09T06:00:50;16.20;99.90
18805;DHT22;9530;48.930;9.526;2022-09-09T06:03:17;16.40;99.90
18805;DHT22;9530;48.930;9.526;2022-09-09T06:05:44;16.50;99.90
18805;DHT22;9530;48.930;9.526;2022-09-09T06:08:11;16.50;99.90
18805;DHT22;9530;48.930;9.526;2022-09-09T06:10:37;16.50;99.90
18805;DHT22;9530;48.930;9.526;2022-09-09T06:13:05;16.60;99.90
18805;DHT22;9530;48.930;9.526;2022-09-09T06:15:32;16.60;99.90
18805;DHT22;9530;48.930;9.526;2022-09-09T06:17:59;16.60;99.90
18805;DHT22;9530;48.930;9.526;2022-09-09T06:20:26;16.80;99.90
18805;DHT22;9530;48.930;9.526;2022-09-09T06:22:55;16.90;99.90
18805;DHT22;9530;48.930;9.526;2022-09-09T06:25:22;17.00;99.90
18805;DHT22;9530;48.930;9.526;2022-09-09T06:27:49;17.10;99.90
18805;DHT22;9530;48.930;9.526;2022-09-09T06:30:17;17.20;99.90
18805;DHT22;9530;48.930;9.526;2022-09-09T06:32:44;17.30;99.90
18805;DHT22;9530;48.930;9.526;2022-09-09T06:35:11;17.50;99.90
18805;DHT22;9530;48.930;9.526;2022-09-09T06:37:39;17.60;99.90
18805;DHT22;9530;48.930;9.526;2022-09-09T06:40:06;17.60;99.90
18805;DHT22;9530;48.930;9.526;2022-09-09T06:42:33;17.70;99.90
18805;DHT22;9530;48.930;9.526;2022-09-09T06:45:00;17.70;99.90
18805;DHT22;9530;48.930;9.526;2022-09-09T06:47:29;17.80;99.90
18805;DHT22;9530;48.930;9.526;2022-09-09T06:49:56;17.80;99.90
18805;DHT22;9530;48.930;9.526;2022-09-09T06:52:23;17.90;99.90
18805;DHT22;9530;48.930;9.526;2022-09-09T06:54:51;18.00;99.90
18805;DHT22;9530;48.930;9.526;2022-09-09T06:57:18;18.00;99.90
18805;DHT22;9530;48.930;9.526;2022-09-09T06:59:45;17.90;99.90
18805;DHT22;9530;48.930;9.526;2022-09-09T07:02:12;18.00;99.90
18805;DHT22;9530;48.930;9.526;2022-09-09T07:04:40;18.00;99.90
18805;DHT22;9530;48.930;9.526;2022-09-09T07:07:06;18.00;99.90
18805;DHT22;9530;48.930;9.526;2022-09-09T07:09:35;18.20;99.90
18805;DHT22;9530;48.930;9.526;2022-09-09T07:12:01;18.30;99.90
18805;DHT22;9530;48.930;9.526;2022-09-09T07:14:31;18.50;99.90
18805;DHT22;9530;48.930;9.526;2022-09-09T07:16:58;18.60;99.90
18805;DHT22;9530;48.930;9.526;2022-09-09T07:19:25;18.70;99.90
18805;DHT22;9530;48.930;9.526;2022-09-09T07:21:53;18.70;99.90
18805;DHT22;9530;48.930;9.526;2022-09-09T07:24:20;18.80;99.90
18805;DHT22;9530;48.930;9.526;2022-09-09T07:26:47;18.80;99.90
18805;DHT22;9530;48.930;9.526;2022-09-09T07:29:13;18.90;99.90
18805;DHT22;9530;48.930;9.526;2022-09-09T07:31:40;19.00;99.90
18805;DHT22;9530;48.930;9.526;2022-09-09T07:34:08;19.00;99.90
18805;DHT22;9530;48.930;9.526;2022-09-09T07:36:37;19.10;99.90
18805;DHT22;9530;48.930;9.526;2022-09-09T07:39:08;19.10;99.90
18805;DHT22;9530;48.930;9.526;2022-09-09T07:41:37;19.30;99.90
18805;DHT22;9530;48.930;9.526;2022-09-09T07:44:06;19.50;99.90
18805;DHT22;9530;48.930;9.526;2022-09-09T07:46:34;19.60;99.90
18805;DHT22;9530;48.930;9.526;2022-09-09T07:49:01;19.60;99.90
18805;DHT22;9530;48.930;9.526;2022-09-09T07:51:30;19.70;99.90
18805;DHT22;9530;48.930;9.526;2022-09-09T07:53:58;19.70;99.90
18805;DHT22;9530;48.930;9.526;2022-09-09T07:56:28;19.80;99.90
18805;DHT22;9530;48.930;9.526;2022-09-09T07:58:55;20.10;99.90
18805;DHT22;9530;48.930;9.526;2022-09-09T08:01:24;20.10;99.90
18805;DHT22;9530;48.930;9.526;2022-09-09T08:03:56;20.20;99.90
18805;DHT22;9530;48.930;9.526;2022-09-09T08:06:25;20.30;99.90
18805;DHT22;9530;48.930;9.526;2022-09-09T08:08:52;20.50;99.90
18805;DHT22;9530;48.930;9.526;2022-09-09T08:11:21;20.70;99.90
18805;DHT22;9530;48.930;9.526;2022-09-09T08:13:50;20.80;99.90
18805;DHT22;9530;48.930;9.526;2022-09-09T08:16:21;20.80;99.90
18805;DHT22;9530;48.930;9.526;2022-09-09T08:18:48;21.00;99.90
18805;DHT22;9530;48.930;9.526;2022-09-09T08:21:16;21.10;99.90
18805;DHT22;9530;48.930;9.526;2022-09-09T08:23:44;21.10;99.90
18805;DHT22;9530;48.930;9.526;2022-09-09T08:26:14;20.90;99.90
18805;DHT22;9530;48.930;9.526;2022-09-09T08:28:41;20.90;99.90
18805;DHT22;9530;48.930;9.526;2022-09-09T08:31:12;20.80;99.90
18805;DHT22;9530;48.930;9.526;2022-09-09T08:33:40;21.00;99.90
18805;DHT22;9530;48.930;9.526;2022-09-09T08:36:09;21.00;99.90
18805;DHT22;9530;48.930;9.526;2022-09-09T08:38:37;21.10;99.90
18805;DHT22;9530;48.930;9.526;2022-09-09T08:41:25;21.40;99.90
18805;DHT22;9530;48.930;9.526;2022-09-09T08:44:02;21.40;99.90
18805;DHT22;9530;48.930;9.526;2022-09-09T08:46:39;21.40;99.90
18805;DHT22;9530;48.930;9.526;2022-09-09T08:52:13;21.30;99.90
18805;DHT22;9530;48.930;9.526;2022-09-09T08:54:44;21.50;99.90
18805;DHT22;9530;48.930;9.526;2022-09-09T08:57:17;21.60;99.90
18805;DHT22;9530;48.930;9.526;2022-09-09T08:59:46;21.70;99.90
18805;DHT22;9530;48.930;9.526;2022-09-09T09:02:18;21.90;99.90
18805;DHT22;9530;48.930;9.526;2022-09-09T09:05:05;21.90;99.90
18805;DHT22;9530;48.930;9.526;2022-09-09T09:07:46;21.60;99.90
18805;DHT22;9530;48.930;9.526;2022-09-09T09:10:22;21.20;99.90
18805;DHT22;9530;48.930;9.526;2022-09-09T09:12:54;20.90;99.90
18805;DHT22;9530;48.930;9.526;2022-09-09T09:15:23;20.70;99.90
18805;DHT22;9530;48.930;9.526;2022-09-09T09:17:52;20.70;99.90
18805;DHT22;9530;48.930;9.526;2022-09-09T09:20:25;20.80;99.90
18805;DHT22;9530;48.930;9.526;2022-09-09T09:22:59;21.30;99.90
18805;DHT22;9530;48.930;9.526;2022-09-09T09:25:32;21.70;99.90
18805;DHT22;9530;48.930;9.526;2022-09-09T09:28:03;22.00;99.90
18805;DHT22;9530;48.930;9.526;2022-09-09T09:30:40;22.30;99.90
18805;DHT22;9530;48.930;9.526;2022-09-09T09:33:16;22.60;99.90
18805;DHT22;9530;48.930;9.526;2022-09-09T09:35:44;22.90;99.90
18805;DHT22;9530;48.930;9.526;2022-09-09T09:38:17;22.80;99.90
18805;DHT22;9530;48.930;9.526;2022-09-09T09:40:51;22.80;99.90
18805;DHT22;9530;48.930;9.526;2022-09-09T09:43:23;23.00;99.90
18805;DHT22;9530;48.930;9.526;2022-09-09T09:45:50;23.00;99.90
18805;DHT22;9530;48.930;9.526;2022-09-09T09:48:19;23.10;99.90
18805;DHT22;9530;48.930;9.526;2022-09-09T09:50:50;23.30;99.90
18805;DHT22;9530;48.930;9.526;2022-09-09T09:53:21;23.00;99.90
18805;DHT22;9530;48.930;9.526;2022-09-09T09:55:52;22.70;99.90
18805;DHT22;9530;48.930;9.526;2022-09-09T09:58:20;22.40;99.90
18805;DHT22;9530;48.930;9.526;2022-09-09T10:00:48;22.10;99.90
18805;DHT22;9530;48.930;9.526;2022-09-09T10:03:23;21.90;99.90
18805;DHT22;9530;48.930;9.526;2022-09-09T10:05:50;21.70;99.90
18805;DHT22;9530;48.930;9.526;2022-09-09T10:08:17;21.70;99.90
18805;DHT22;9530;48.930;9.526;2022-09-09T10:10:56;21.60;99.90
18805;DHT22;9530;48.930;9.526;2022-09-09T10:13:28;21.60;99.90
18805;DHT22;9530;48.930;9.526;2022-09-09T10:16:06;21.40;99.90
18805;DHT22;9530;48.930;9.526;2022-09-09T10:18:47;21.40;99.90
18805;DHT22;9530;48.930;9.526;2022-09-09T10:21:46;21.50;99.90
18805;DHT22;9530;48.930;9.526;2022-09-09T10:25:11;21.70;99.90
18805;DHT22;9530;48.930;9.526;2022-09-09T10:27:46;21.80;99.90
18805;DHT22;9530;48.930;9.526;2022-09-09T10:30:18;21.80;99.90
18805;DHT22;9530;48.930;9.526;2022-09-09T10:32:48;21.80;99.90
18805;DHT22;9530;48.930;9.526;2022-09-09T10:35:27;21.70;99.90
18805;DHT22;9530;48.930;9.526;2022-09-09T10:38:14;21.80;99.90
18805;DHT22;9530;48.930;9.526;2022-09-09T10:40:46;21.80;99.90
18805;DHT22;9530;48.930;9.526;2022-09-09T10:43:24;22.00;99.90
18805;DHT22;9530;48.930;9.526;2022-09-09T10:46:02;22.00;99.90
18805;DHT22;9530;48.930;9.526;2022-09-09T10:48:37;22.10;99.90
18805;DHT22;9530;48.930;9.526;2022-09-09T10:51:26;22.20;99.90
18805;DHT22;9530;48.930;9.526;2022-09-09T10:54:10;22.20;99.90
18805;DHT22;9530;48.930;9.526;2022-09-09T10:56:41;22.50;99.90
18805;DHT22;9530;48.930;9.526;2022-09-09T10:59:13;22.60;99.90
18805;DHT22;9530;48.930;9.526;2022-09-09T11:01:44;22.50;99.90
18805;DHT22;9530;48.930;9.526;2022-09-09T11:04:16;22.40;99.90
18805;DHT22;9530;48.930;9.526;2022-09-09T11:06:49;22.70;99.90
18805;DHT22;9530;48.930;9.526;2022-09-09T11:09:21;23.20;99.90
18805;DHT22;9530;48.930;9.526;2022-09-09T11:11:52;23.70;99.90
18805;DHT22;9530;48.930;9.526;2022-09-09T11:14:22;23.90;99.90
18805;DHT22;9530;48.930;9.526;2022-09-09T11:16:55;23.80;99.90
18805;DHT22;9530;48.930;9.526;2022-09-09T11:19:28;23.80;99.90
18805;DHT22;9530;48.930;9.526;2022-09-09T11:22:00;23.70;99.90
18805;DHT22;9530;48.930;9.526;2022-09-09T11:24:33;23.40;99.90
18805;DHT22;9530;48.930;9.526;2022-09-09T11:27:05;23.20;99.90
18805;DHT22;9530;48.930;9.526;2022-09-09T11:33:04;23.10;99.90
18805;DHT22;9530;48.930;9.526;2022-09-09T11:35:45;22.90;99.90
18805;DHT22;9530;48.930;9.526;2022-09-09T11:38:20;22.90;99.90
18805;DHT22;9530;48.930;9.526;2022-09-09T11:40:55;22.80;99.90
18805;DHT22;9530;48.930;9.526;2022-09-09T11:43:25;22.70;99.90
18805;DHT22;9530;48.930;9.526;2022-09-09T11:45:55;22.70;99.90
18805;DHT22;9530;48.930;9.526;2022-09-09T11:48:28;22.70;99.90
18805;DHT22;9530;48.930;9.526;2022-09-09T11:51:01;22.70;99.90
18805;DHT22;9530;48.930;9.526;2022-09-09T11:53:32;22.10;99.90
18805;DHT22;9530;48.930;9.526;2022-09-09T11:56:07;21.70;99.90
18805;DHT22;9530;48.930;9.526;2022-09-09T11:58:39;20.60;99.90
18805;DHT22;9530;48.930;9.526;2022-09-09T12:01:14;20.00;99.90
18805;DHT22;9530;48.930;9.526;2022-09-09T12:03:43;19.40;99.90
18805;DHT22;9530;48.930;9.526;2022-09-09T12:06:15;19.20;99.90
18805;DHT22;9530;48.930;9.526;2022-09-09T12:08:47;18.90;99.90
18805;DHT22;9530;48.930;9.526;2022-09-09T12:11:25;18.60;99.90
18805;DHT22;9530;48.930;9.526;2022-09-09T12:13:53;18.50;99.90
18805;DHT22;9530;48.930;9.526;2022-09-09T12:16:32;18.00;99.90
18805;DHT22;9530;48.930;9.526;2022-09-09T12:19:12;17.90;99.90
18805;DHT22;9530;48.930;9.526;2022-09-09T12:21:46;17.80;99.90
18805;DHT22;9530;48.930;9.526;2022-09-09T12:24:22;17.90;99.90
18805;DHT22;9530;48.930;9.526;2022-09-09T12:26:56;18.10;99.90
18805;DHT22;9530;48.930;9.526;2022-09-09T12:29:28;18.30;99.90
18805;DHT22;9530;48.930;9.526;2022-09-09T12:32:02;18.50;99.90
18805;DHT22;9530;48.930;9.526;2022-09-09T12:34:36;19.00;99.90
18805;DHT22;9530;48.930;9.526;2022-09-09T12:37:11;19.50;99.90
18805;DHT22;9530;48.930;9.526;2022-09-09T12:39:44;19.80;99.90
18805;DHT22;9530;48.930;9.526;2022-09-09T12:42:17;20.10;99.90
18805;DHT22;9530;48.930;9.526;2022-09-09T12:44:51;20.10;99.90
18805;DHT22;9530;48.930;9.526;2022-09-09T12:47:19;20.20;99.90
18805;DHT22;9530;48.930;9.526;2022-09-09T12:49:47;20.20;99.90
18805;DHT22;9530;48.930;9.526;2022-09-09T12:52:18;20.20;99.90
18805;DHT22;9530;48.930;9.526;2022-09-09T12:54:49;19.90;99.90
18805;DHT22;9530;48.930;9.526;2022-09-09T12:57:17;20.00;99.90
18805;DHT22;9530;48.930;9.526;2022-09-09T12:59:44;20.10;99.90
18805;DHT22;9530;48.930;9.526;2022-09-09T13:02:20;20.10;99.90
18805;DHT22;9530;48.930;9.526;2022-09-09T13:04:48;20.40;99.90
18805;DHT22;9530;48.930;9.526;2022-09-09T13:07:16;20.80;99.90
18805;DHT22;9530;48.930;9.526;2022-09-09T13:09:43;20.80;99.90
18805;DHT22;9530;48.930;9.526;2022-09-09T13:12:15;20.50;99.90
18805;DHT22;9530;48.930;9.526;2022-09-09T13:14:44;20.50;99.90
18805;DHT22;9530;48.930;9.526;2022-09-09T13:17:19;20.70;99.90
18805;DHT22;9530;48.930;9.526;2022-09-09T13:19:46;20.70;99.90
18805;DHT22;9530;48.930;9.526;2022-09-09T13:22:21;20.60;99.90
18805;DHT22;9530;48.930;9.526;2022-09-09T13:24:59;20.60;99.90
18805;DHT22;9530;48.930;9.526;2022-09-09T13:27:31;20.70;99.90
18805;DHT22;9530;48.930;9.526;2022-09-09T13:29:59;21.10;99.90
18805;DHT22;9530;48.930;9.526;2022-09-09T13:32:28;21.20;99.90
18805;DHT22;9530;48.930;9.526;2022-09-09T13:34:58;21.50;99.90
18805;DHT22;9530;48.930;9.526;2022-09-09T13:37:30;21.30;99.90
18805;DHT22;9530;48.930;9.526;2022-09-09T13:39:58;21.50;99.90
18805;DHT22;9530;48.930;9.526;2022-09-09T13:42:27;21.30;99.90
18805;DHT22;9530;48.930;9.526;2022-09-09T13:44:56;21.10;99.90
18805;DHT22;9530;48.930;9.526;2022-09-09T13:47:29;20.90;99.90
18805;DHT22;9530;48.930;9.526;2022-09-09T13:49:56;20.80;99.90
18805;DHT22;9530;48.930;9.526;2022-09-09T13:52:23;20.80;99.90
18805;DHT22;9530;48.930;9.526;2022-09-09T13:54:52;20.90;99.90
18805;DHT22;9530;48.930;9.526;2022-09-09T13:57:21;20.90;99.90
18805;DHT22;9530;48.930;9.526;2022-09-09T13:59:49;20.90;99.90
18805;DHT22;9530;48.930;9.526;2022-09-09T14:02:17;21.10;99.90
18805;DHT22;9530;48.930;9.526;2022-09-09T14:04:44;21.20;99.90
18805;DHT22;9530;48.930;9.526;2022-09-09T14:07:12;21.60;99.90
18805;DHT22;9530;48.930;9.526;2022-09-09T14:09:39;22.10;99.90
18805;DHT22;9530;48.930;9.526;2022-09-09T14:12:08;22.10;99.90
18805;DHT22;9530;48.930;9.526;2022-09-09T14:14:36;22.20;99.90
18805;DHT22;9530;48.930;9.526;2022-09-09T14:17:02;22.50;99.90
18805;DHT22;9530;48.930;9.526;2022-09-09T14:19:31;22.60;99.90
18805;DHT22;9530;48.930;9.526;2022-09-09T14:21:58;22.50;99.90
18805;DHT22;9530;48.930;9.526;2022-09-09T14:24:24;22.50;99.90
18805;DHT22;9530;48.930;9.526;2022-09-09T14:26:51;22.40;99.90
18805;DHT22;9530;48.930;9.526;2022-09-09T14:29:18;22.30;99.90
18805;DHT22;9530;48.930;9.526;2022-09-09T14:31:45;22.10;99.90
18805;DHT22;9530;48.930;9.526;2022-09-09T14:34:12;21.90;99.90
18805;DHT22;9530;48.930;9.526;2022-09-09T14:36:41;22.00;99.90
18805;DHT22;9530;48.930;9.526;2022-09-09T14:39:07;22.20;99.90
18805;DHT22;9530;48.930;9.526;2022-09-09T14:41:34;22.40;99.90
18805;DHT22;9530;48.930;9.526;2022-09-09T14:44:01;22.30;99.90
18805;DHT22;9530;48.930;9.526;2022-09-09T14:46:28;22.40;99.90
18805;DHT22;9530;48.930;9.526;2022-09-09T14:48:55;22.70;99.90
18805;DHT22;9530;48.930;9.526;2022-09-09T14:51:24;22.90;99.90
18805;DHT22;9530;48.930;9.526;2022-09-09T14:53:55;22.90;99.90
18805;DHT22;9530;48.930;9.526;2022-09-09T14:56:25;22.90;99.90
18805;DHT22;9530;48.930;9.526;2022-09-09T14:58:52;22.90;99.90
18805;DHT22;9530;48.930;9.526;2022-09-09T15:01:20;22.70;99.90
18805;DHT22;9530;48.930;9.526;2022-09-09T15:03:50;22.60;99.90
18805;DHT22;9530;48.930;9.526;2022-09-09T15:06:17;22.50;99.90
18805;DHT22;9530;48.930;9.526;2022-09-09T15:08:45;22.30;99.90
18805;DHT22;9530;48.930;9.526;2022-09-09T15:11:14;22.30;99.90
18805;DHT22;9530;48.930;9.526;2022-09-09T15:13:42;22.30;99.90
18805;DHT22;9530;48.930;9.526;2022-09-09T15:16:12;22.40;99.90
18805;DHT22;9530;48.930;9.526;2022-09-09T15:18:39;22.70;99.90
18805;DHT22;9530;48.930;9.526;2022-09-09T15:21:08;22.70;99.90
18805;DHT22;9530;48.930;9.526;2022-09-09T15:23:35;22.90;99.90
18805;DHT22;9530;48.930;9.526;2022-09-09T15:26:03;23.00;99.90
18805;DHT22;9530;48.930;9.526;2022-09-09T15:28:33;23.00;99.90
18805;DHT22;9530;48.930;9.526;2022-09-09T15:31:06;23.10;99.90
18805;DHT22;9530;48.930;9.526;2022-09-09T15:33:33;23.20;99.90
18805;DHT22;9530;48.930;9.526;2022-09-09T15:36:12;23.10;99.90
18805;DHT22;9530;48.930;9.526;2022-09-09T15:38:39;22.80;99.90
18805;DHT22;9530;48.930;9.526;2022-09-09T15:41:06;22.60;99.90
18805;DHT22;9530;48.930;9.526;2022-09-09T15:43:34;22.30;99.90
18805;DHT22;9530;48.930;9.526;2022-09-09T15:46:09;22.10;99.90
18805;DHT22;9530;48.930;9.526;2022-09-09T15:48:50;21.90;99.90
18805;DHT22;9530;48.930;9.526;2022-09-09T15:51:16;21.80;99.90
18805;DHT22;9530;48.930;9.526;2022-09-09T15:53:44;21.80;99.90
18805;DHT22;9530;48.930;9.526;2022-09-09T15:56:10;21.90;99.90
18805;DHT22;9530;48.930;9.526;2022-09-09T15:58:38;22.30;99.90
18805;DHT22;9530;48.930;9.526;2022-09-09T16:01:07;22.20;99.90
18805;DHT22;9530;48.930;9.526;2022-09-09T16:03:34;22.10;99.90
18805;DHT22;9530;48.930;9.526;2022-09-09T16:06:00;21.90;99.90
18805;DHT22;9530;48.930;9.526;2022-09-09T16:08:32;21.70;99.90
18805;DHT22;9530;48.930;9.526;2022-09-09T16:11:05;21.40;99.90
18805;DHT22;9530;48.930;9.526;2022-09-09T16:13:33;21.20;99.90